Time,TemperatureF,DewpointF,PressureIn,WindDirection,WindDirectionDegrees,WindSpeedMPH,WindSpeedGustMPH,Humidity,HourlyPrecipIn,Conditions,Clouds,dailyrainin,SoftwareType,DateUTC
2013-05-23 00:02:00,41.5,30.6,28.07,NNE,25,2.0,6.0,65,0.00,,---,0.00,VWS V14.01,2013-05-23 05:02:00,
2013-05-23 00:07:00,41.2,30.7,28.07,NE,34,8.0,8.0,66,0.00,,---,0.00,VWS V14.01,2013-05-23 05:07:00,
2013-05-23 00:12:00,41.1,30.6,28.07,NE,43,6.0,9.0,66,0.00,,---,0.00,VWS V14.01,2013-05-23 05:12:00,
2013-05-23 00:17:00,40.9,30.4,28.08,NNE,21,6.0,8.0,66,0.00,,---,0.00,VWS V14.01,2013-05-23 05:17:00,
2013-05-23 00:22:00,40.8,30.3,28.08,NE,55,3.0,8.0,66,0.00,,---,0.00,VWS V14.01,2013-05-23 05:22:00,
2013-05-23 00:27:00,40.6,30.1,28.08,NE,36,4.0,7.0,66,0.00,,---,0.00,VWS V14.01,2013-05-23 05:27:00,
2013-05-23 00:32:00,40.5,30.0,28.08,NNE,28,4.0,9.0,66,0.00,,---,0.00,VWS V14.01,2013-05-23 05:32:00,
2013-05-23 00:37:00,40.3,29.9,28.08,NNE,21,4.0,6.0,66,0.00,,---,0.00,VWS V14.01,2013-05-23 05:37:00,
2013-05-23 00:43:00,40.4,30.0,28.08,NNE,20,11.0,11.0,66,0.00,,---,0.00,VWS V14.01,2013-05-23 05:43:00,
2013-05-23 00:48:00,40.3,29.9,28.09,NE,39,0.0,5.0,66,0.00,,---,0.00,VWS V14.01,2013-05-23 05:48:00,
2013-05-23 00:53:00,40.1,29.7,28.09,NNE,17,3.0,9.0,66,0.00,,---,0.00,VWS V14.01,2013-05-23 05:53:00,
2013-05-23 00:58:00,39.9,29.5,28.09,NE,34,3.0,11.0,66,0.00,,---,0.00,VWS V14.01,2013-05-23 05:58:00,
2013-05-23 01:03:00,39.7,29.3,28.09,NE,55,8.0,8.0,66,0.00,,---,0.00,VWS V14.01,2013-05-23 06:03:00,
2013-05-23 01:08:00,39.5,29.1,28.09,NNE,31,5.0,10.0,66,0.00,,---,0.00,VWS V14.01,2013-05-23 06:08:00,
2013-05-23 01:14:00,39.2,28.8,28.09,NE,41,3.0,5.0,66,0.00,,---,0.00,VWS V14.01,2013-05-23 06:14:00,
2013-05-23 01:19:00,39.0,29.0,28.09,NNE,17,7.0,7.0,67,0.00,,---,0.00,VWS V14.01,2013-05-23 06:19:00,
2013-05-23 01:24:00,38.8,28.8,28.09,NNE,13,6.0,13.0,67,0.00,,---,0.00,VWS V14.01,2013-05-23 06:24:00,
2013-05-23 01:29:00,38.5,28.5,28.09,NNE,13,3.0,8.0,67,0.00,,---,0.00,VWS V14.01,2013-05-23 06:29:00,
2013-05-23 01:34:00,38.4,28.4,28.09,NNE,30,4.0,10.0,67,0.00,,---,0.00,VWS V14.01,2013-05-23 06:34:00,
2013-05-23 01:39:00,38.2,28.2,28.09,North,360,4.0,4.0,67,0.00,,---,0.00,VWS V14.01,2013-05-23 06:39:00,
2013-05-23 01:44:00,38.0,28.0,28.09,NE,47,5.0,9.0,67,0.00,,---,0.00,VWS V14.01,2013-05-23 06:44:00,
2013-05-23 01:49:00,37.8,27.8,28.10,NE,39,3.0,8.0,67,0.00,,---,0.00,VWS V14.01,2013-05-23 06:49:00,
2013-05-23 01:55:00,37.7,27.8,28.10,North,10,5.0,9.0,67,0.00,,---,0.00,VWS V14.01,2013-05-23 06:55:00,
2013-05-23 02:00:00,37.4,27.5,28.10,North,5,10.0,10.0,67,0.00,,---,0.00,VWS V14.01,2013-05-23 07:00:00,
2013-05-23 02:05:00,37.4,27.5,28.10,NNE,16,6.0,12.0,67,0.00,,---,0.00,VWS V14.01,2013-05-23 07:05:00,
2013-05-23 02:10:00,37.2,27.3,28.10,NNE,17,2.0,4.0,67,0.00,,---,0.00,VWS V14.01,2013-05-23 07:10:00,
2013-05-23 02:15:00,36.9,27.3,28.10,NNE,27,2.0,4.0,68,0.00,,---,0.00,VWS V14.01,2013-05-23 07:15:00,
2013-05-23 02:21:00,36.6,27.0,28.10,NNE,16,4.0,4.0,68,0.00,,---,0.00,VWS V14.01,2013-05-23 07:21:00,
2013-05-23 02:26:00,36.2,26.7,28.10,NE,54,8.0,8.0,68,0.00,,---,0.00,VWS V14.01,2013-05-23 07:26:00,
2013-05-23 02:31:00,36.2,26.7,28.11,NNE,26,4.0,7.0,68,0.00,,---,0.00,VWS V14.01,2013-05-23 07:31:00,
2013-05-23 02:36:00,36.1,26.9,28.11,North,360,8.0,13.0,69,0.00,,---,0.00,VWS V14.01,2013-05-23 07:36:00,
2013-05-23 02:41:00,35.9,26.7,28.11,NNE,17,4.0,6.0,69,0.00,,---,0.00,VWS V14.01,2013-05-23 07:41:00,
2013-05-23 02:46:00,35.9,26.4,28.10,North,355,9.0,11.0,68,0.00,,---,0.00,VWS V14.01,2013-05-23 07:46:00,
2013-05-23 02:57:00,35.7,26.5,28.10,NE,43,4.0,9.0,69,0.00,,---,0.00,VWS V14.01,2013-05-23 07:57:00,
2013-05-23 03:02:00,35.4,26.3,28.11,NE,51,5.0,5.0,69,0.00,,---,0.00,VWS V14.01,2013-05-23 08:02:00,
2013-05-23 03:07:00,35.1,26.3,28.11,NNE,12,3.0,6.0,70,0.00,,---,0.00,VWS V14.01,2013-05-23 08:07:00,
2013-05-23 03:13:00,34.9,26.5,28.11,NNE,22,2.0,8.0,71,0.00,,---,0.00,VWS V14.01,2013-05-23 08:13:00,
2013-05-23 03:18:00,34.6,26.2,28.12,NNE,18,3.0,9.0,71,0.00,,---,0.00,VWS V14.01,2013-05-23 08:18:00,
2013-05-23 03:23:00,34.4,26.3,28.12,NNE,15,9.0,9.0,72,0.00,,---,0.00,VWS V14.01,2013-05-23 08:23:00,
2013-05-23 03:28:00,34.4,26.3,28.12,North,9,2.0,6.0,72,0.00,,---,0.00,VWS V14.01,2013-05-23 08:28:00,
2013-05-23 03:33:00,34.3,26.6,28.12,NNE,14,4.0,4.0,73,0.00,,---,0.00,VWS V14.01,2013-05-23 08:33:00,
2013-05-23 03:38:00,34.2,26.5,28.12,NNE,22,2.0,5.0,73,0.00,,---,0.00,VWS V14.01,2013-05-23 08:38:00,
2013-05-23 03:43:00,33.9,26.5,28.12,NE,42,4.0,4.0,74,0.00,,---,0.00,VWS V14.01,2013-05-23 08:43:00,
2013-05-23 03:49:00,33.7,26.3,28.12,NNE,25,3.0,5.0,74,0.00,,---,0.00,VWS V14.01,2013-05-23 08:49:00,
2013-05-23 03:54:00,33.5,26.4,28.12,NNE,32,4.0,4.0,75,0.00,,---,0.00,VWS V14.01,2013-05-23 08:54:00,
2013-05-23 03:59:00,33.2,26.5,28.12,NNE,20,2.0,2.0,76,0.00,,---,0.00,VWS V14.01,2013-05-23 08:59:00,
2013-05-23 04:04:00,33.1,26.7,28.13,NNE,19,5.0,5.0,77,0.00,,---,0.00,VWS V14.01,2013-05-23 09:04:00,
2013-05-23 04:09:00,33.1,26.7,28.13,North,11,3.0,8.0,77,0.00,,---,0.00,VWS V14.01,2013-05-23 09:09:00,
2013-05-23 04:14:00,33.2,26.8,28.13,NNE,17,3.0,5.0,77,0.00,,---,0.00,VWS V14.01,2013-05-23 09:14:00,
2013-05-23 04:19:00,33.2,26.8,28.14,NNE,30,3.0,3.0,77,0.00,,---,0.00,VWS V14.01,2013-05-23 09:19:00,
2013-05-23 04:24:00,33.1,26.7,28.14,North,5,3.0,4.0,77,0.00,,---,0.00,VWS V14.01,2013-05-23 09:24:00,
2013-05-23 04:29:00,33.0,26.6,28.14,North,5,10.0,10.0,77,0.00,,---,0.00,VWS V14.01,2013-05-23 09:29:00,
2013-05-23 04:35:00,33.0,26.6,28.15,NNW,345,7.0,9.0,77,0.00,,---,0.00,VWS V14.01,2013-05-23 09:35:00,
2013-05-23 04:40:00,32.8,26.4,28.15,NNE,14,4.0,11.0,77,0.00,,---,0.00,VWS V14.01,2013-05-23 09:40:00,
2013-05-23 04:45:00,32.8,26.4,28.15,North,9,6.0,10.0,77,0.00,,---,0.00,VWS V14.01,2013-05-23 09:45:00,
2013-05-23 04:50:00,32.6,26.5,28.15,North,9,3.0,10.0,78,0.00,,---,0.00,VWS V14.01,2013-05-23 09:50:00,
2013-05-23 04:55:00,32.4,26.3,28.15,NNE,32,0.0,4.0,78,0.00,,---,0.00,VWS V14.01,2013-05-23 09:55:00,
2013-05-23 05:00:00,32.2,26.4,28.15,NNW,329,10.0,10.0,79,0.00,,---,0.00,VWS V14.01,2013-05-23 10:00:00,
2013-05-23 05:05:00,32.2,26.4,28.15,North,5,3.0,8.0,79,0.00,,---,0.00,VWS V14.01,2013-05-23 10:05:00,
2013-05-23 05:10:00,32.2,26.1,28.15,NNE,13,6.0,8.0,78,0.00,,---,0.00,VWS V14.01,2013-05-23 10:10:00,
2013-05-23 05:15:00,32.1,26.3,28.16,North,5,4.0,12.0,79,0.00,,---,0.00,VWS V14.01,2013-05-23 10:15:00,
2013-05-23 05:21:00,32.0,26.2,28.16,NNE,23,4.0,6.0,79,0.00,,---,0.00,VWS V14.01,2013-05-23 10:21:00,
2013-05-23 05:26:00,31.8,26.0,28.16,North,5,2.0,7.0,79,0.00,,---,0.00,VWS V14.01,2013-05-23 10:26:00,
2013-05-23 05:31:00,31.7,26.2,28.17,North,9,2.0,6.0,80,0.00,,---,0.00,VWS V14.01,2013-05-23 10:31:00,
2013-05-23 05:36:00,31.5,26.0,28.17,North,5,2.0,5.0,80,0.00,,---,0.00,VWS V14.01,2013-05-23 10:36:00,
2013-05-23 05:41:00,31.5,26.0,28.17,NNE,19,5.0,8.0,80,0.00,,---,0.00,VWS V14.01,2013-05-23 10:41:00,
2013-05-23 05:46:00,31.7,26.2,28.17,North,11,1.0,2.0,80,0.00,,---,0.00,VWS V14.01,2013-05-23 10:46:00,
2013-05-23 05:51:00,31.7,26.2,28.17,NNE,30,2.0,6.0,80,0.00,,---,0.00,VWS V14.01,2013-05-23 10:51:00,
2013-05-23 05:57:00,31.7,26.2,28.17,NNE,19,2.0,6.0,80,0.00,,---,0.00,VWS V14.01,2013-05-23 10:57:00,
2013-05-23 06:02:00,31.7,26.5,28.17,NNE,21,1.0,4.0,81,0.00,,---,0.00,VWS V14.01,2013-05-23 11:02:00,
2013-05-23 06:07:00,31.7,26.5,28.17,NNE,25,5.0,6.0,81,0.00,,---,0.00,VWS V14.01,2013-05-23 11:07:00,
2013-05-23 06:12:00,31.7,26.2,28.17,NNE,16,3.0,3.0,80,0.00,,---,0.00,VWS V14.01,2013-05-23 11:12:00,
2013-05-23 06:17:00,31.8,26.6,28.18,North,5,9.0,9.0,81,0.00,,---,0.00,VWS V14.01,2013-05-23 11:17:00,
2013-05-23 06:23:00,31.9,26.4,28.18,NNE,25,8.0,8.0,80,0.00,,---,0.00,VWS V14.01,2013-05-23 11:23:00,
2013-05-23 06:28:00,32.0,26.5,28.18,ENE,61,2.0,6.0,80,0.00,,---,0.00,VWS V14.01,2013-05-23 11:28:00,
2013-05-23 06:33:00,32.3,26.5,28.18,NNE,16,6.0,9.0,79,0.00,,---,0.00,VWS V14.01,2013-05-23 11:33:00,
2013-05-23 06:38:00,32.6,26.8,28.18,NNE,15,5.0,11.0,79,0.00,,---,0.00,VWS V14.01,2013-05-23 11:38:00,
2013-05-23 06:43:00,32.8,26.7,28.18,NE,45,3.0,8.0,78,0.00,,---,0.00,VWS V14.01,2013-05-23 11:43:00,
2013-05-23 06:48:00,33.0,26.9,28.18,NNE,17,2.0,2.0,78,0.00,,---,0.00,VWS V14.01,2013-05-23 11:48:00,
2013-05-23 06:53:00,33.0,26.9,28.18,East,84,6.0,6.0,78,0.00,,---,0.00,VWS V14.01,2013-05-23 11:53:00,
2013-05-23 06:58:00,33.4,27.3,28.18,North,349,3.0,3.0,78,0.00,,---,0.00,VWS V14.01,2013-05-23 11:58:00,
2013-05-23 07:04:00,33.4,27.0,28.19,North,355,10.0,13.0,77,0.00,,---,0.00,VWS V14.01,2013-05-23 12:04:00,
2013-05-23 07:09:00,33.3,26.9,28.19,NNE,22,2.0,6.0,77,0.00,,---,0.00,VWS V14.01,2013-05-23 12:09:00,
2013-05-23 07:14:00,33.8,27.4,28.19,NNE,23,1.0,5.0,77,0.00,,---,0.00,VWS V14.01,2013-05-23 12:14:00,
2013-05-23 07:19:00,34.3,27.2,28.20,NE,40,5.0,5.0,75,0.00,,---,0.00,VWS V14.01,2013-05-23 12:19:00,
2013-05-23 07:24:00,34.4,27.3,28.20,NNE,20,8.0,8.0,75,0.00,,---,0.00,VWS V14.01,2013-05-23 12:24:00,
2013-05-23 07:30:00,34.3,26.9,28.20,NNE,16,6.0,10.0,74,0.00,,---,0.00,VWS V14.01,2013-05-23 12:30:00,
2013-05-23 07:35:00,34.2,27.1,28.20,NNW,342,3.0,7.0,75,0.00,,---,0.00,VWS V14.01,2013-05-23 12:35:00,
2013-05-23 07:40:00,34.4,27.3,28.20,NNE,19,9.0,12.0,75,0.00,,---,0.00,VWS V14.01,2013-05-23 12:40:00,
2013-05-23 07:45:00,34.4,27.0,28.21,NNE,13,9.0,9.0,74,0.00,,---,0.00,VWS V14.01,2013-05-23 12:45:00,
2013-05-23 07:50:00,34.6,27.5,28.21,NNE,14,4.0,6.0,75,0.00,,---,0.00,VWS V14.01,2013-05-23 12:50:00,
2013-05-23 07:56:00,34.9,27.8,28.21,North,10,8.0,11.0,75,0.00,,---,0.00,VWS V14.01,2013-05-23 12:56:00,
2013-05-23 08:01:00,35.2,27.8,28.22,NNE,12,9.0,13.0,74,0.00,,---,0.00,VWS V14.01,2013-05-23 13:01:00,
2013-05-23 08:06:00,35.3,27.5,28.22,NNW,337,5.0,7.0,73,0.00,,---,0.00,VWS V14.01,2013-05-23 13:06:00,
2013-05-23 08:11:00,35.3,27.5,28.22,NNW,342,5.0,8.0,73,0.00,,---,0.00,VWS V14.01,2013-05-23 13:11:00,
2013-05-23 08:17:00,35.3,27.5,28.23,NNE,12,3.0,8.0,73,0.00,,---,0.00,VWS V14.01,2013-05-23 13:17:00,
2013-05-23 08:22:00,35.5,27.7,28.23,North,5,3.0,4.0,73,0.00,,---,0.00,VWS V14.01,2013-05-23 13:22:00,
2013-05-23 08:27:00,35.9,27.8,28.23,North,5,5.0,9.0,72,0.00,,---,0.00,VWS V14.01,2013-05-23 13:27:00,
2013-05-23 08:32:00,35.7,27.9,28.23,NNE,16,6.0,7.0,73,0.00,,---,0.00,VWS V14.01,2013-05-23 13:32:00,
2013-05-23 08:37:00,36.0,27.5,28.23,NNE,22,9.0,11.0,71,0.00,,---,0.00,VWS V14.01,2013-05-23 13:37:00,
2013-05-23 08:43:00,36.1,27.6,28.23,NNE,19,11.0,14.0,71,0.00,,---,0.00,VWS V14.01,2013-05-23 13:43:00,
2013-05-23 08:48:00,36.0,27.5,28.23,NNE,12,10.0,10.0,71,0.00,,---,0.00,VWS V14.01,2013-05-23 13:48:00,
2013-05-23 08:53:00,36.1,27.6,28.23,NNE,16,13.0,13.0,71,0.00,,---,0.00,VWS V14.01,2013-05-23 13:53:00,
2013-05-23 08:58:00,36.6,28.1,28.23,North,350,9.0,9.0,71,0.00,,---,0.00,VWS V14.01,2013-05-23 13:58:00,
2013-05-23 09:03:00,36.6,27.8,28.23,NE,55,4.0,8.0,70,0.00,,---,0.00,VWS V14.01,2013-05-23 14:03:00,
2013-05-23 09:09:00,37.2,28.3,28.23,NNE,20,7.0,9.0,70,0.00,,---,0.00,VWS V14.01,2013-05-23 14:09:00,
2013-05-23 09:14:00,37.4,28.5,28.23,NNE,26,7.0,12.0,70,0.00,,---,0.00,VWS V14.01,2013-05-23 14:14:00,
2013-05-23 09:19:00,37.2,28.3,28.23,North,360,11.0,11.0,70,0.00,,---,0.00,VWS V14.01,2013-05-23 14:19:00,
2013-05-23 09:24:00,37.5,28.3,28.23,NNW,346,6.0,8.0,69,0.00,,---,0.00,VWS V14.01,2013-05-23 14:24:00,
2013-05-23 09:29:00,37.7,27.8,28.23,NNE,18,4.0,8.0,67,0.00,,---,0.00,VWS V14.01,2013-05-23 14:29:00,
2013-05-23 09:34:00,38.1,28.1,28.24,NNE,22,4.0,6.0,67,0.00,,---,0.00,VWS V14.01,2013-05-23 14:34:00,
2013-05-23 09:39:00,38.5,28.1,28.24,NNE,20,2.0,7.0,66,0.00,,---,0.00,VWS V14.01,2013-05-23 14:39:00,
2013-05-23 09:44:00,39.1,28.3,28.24,NNE,19,7.0,11.0,65,0.00,,---,0.00,VWS V14.01,2013-05-23 14:44:00,
2013-05-23 09:49:00,38.8,28.4,28.24,NNE,13,5.0,5.0,66,0.00,,---,0.00,VWS V14.01,2013-05-23 14:49:00,
2013-05-23 09:54:00,39.0,27.9,28.24,North,10,9.0,11.0,64,0.00,,---,0.00,VWS V14.01,2013-05-23 14:54:00,
2013-05-23 09:59:00,39.2,27.7,28.24,North,355,6.0,6.0,63,0.00,,---,0.00,VWS V14.01,2013-05-23 14:59:00,
2013-05-23 10:04:00,39.6,27.7,28.24,NNE,17,13.0,13.0,62,0.00,,---,0.00,VWS V14.01,2013-05-23 15:04:00,
2013-05-23 10:09:00,39.7,27.4,28.24,North,11,8.0,9.0,61,0.00,,---,0.00,VWS V14.01,2013-05-23 15:09:00,
2013-05-23 10:15:00,40.3,27.1,28.24,NNW,338,8.0,13.0,59,0.00,,---,0.00,VWS V14.01,2013-05-23 15:15:00,
2013-05-23 10:20:00,40.9,28.5,28.24,NNE,33,5.0,10.0,61,0.00,,---,0.00,VWS V14.01,2013-05-23 15:20:00,
2013-05-23 10:25:00,41.5,28.3,28.24,NW,319,6.0,10.0,59,0.00,,---,0.00,VWS V14.01,2013-05-23 15:25:00,
2013-05-23 10:30:00,41.5,27.4,28.25,NNW,348,5.0,8.0,57,0.00,,---,0.00,VWS V14.01,2013-05-23 15:30:00,
2013-05-23 10:35:00,41.6,27.9,28.25,NNE,15,9.0,9.0,58,0.00,,---,0.00,VWS V14.01,2013-05-23 15:35:00,
2013-05-23 10:41:00,42.1,29.2,28.25,NNW,346,6.0,7.0,60,0.00,,---,0.00,VWS V14.01,2013-05-23 15:41:00,
2013-05-23 10:46:00,42.3,28.2,28.25,NNE,15,2.0,7.0,57,0.00,,---,0.00,VWS V14.01,2013-05-23 15:46:00,
2013-05-23 10:51:00,43.0,28.8,28.25,NNE,18,6.0,6.0,57,0.00,,---,0.00,VWS V14.01,2013-05-23 15:51:00,
2013-05-23 10:56:00,43.1,28.9,28.25,NNE,30,2.0,3.0,57,0.00,,---,0.00,VWS V14.01,2013-05-23 15:56:00,
2013-05-23 11:01:00,42.9,27.9,28.25,North,9,0.0,8.0,55,0.00,,---,0.00,VWS V14.01,2013-05-23 16:01:00,
2013-05-23 11:06:00,42.5,27.9,28.25,NNE,32,7.0,10.0,56,0.00,,---,0.00,VWS V14.01,2013-05-23 16:06:00,
2013-05-23 11:11:00,42.9,28.7,28.25,North,360,10.0,10.0,57,0.00,,---,0.00,VWS V14.01,2013-05-23 16:11:00,
2013-05-23 11:16:00,42.8,29.1,28.25,NE,50,3.0,5.0,58,0.00,,---,0.00,VWS V14.01,2013-05-23 16:16:00,
2013-05-23 11:21:00,43.8,29.1,28.25,North,360,4.0,13.0,56,0.00,,---,0.00,VWS V14.01,2013-05-23 16:21:00,
2013-05-23 11:27:00,43.6,28.5,28.25,NNW,347,5.0,6.0,55,0.00,,---,0.00,VWS V14.01,2013-05-23 16:27:00,
2013-05-23 11:32:00,44.5,28.9,28.25,NNW,328,6.0,7.0,54,0.00,,---,0.00,VWS V14.01,2013-05-23 16:32:00,
2013-05-23 11:37:00,44.8,29.2,28.25,WNW,288,9.0,9.0,54,0.00,,---,0.00,VWS V14.01,2013-05-23 16:37:00,
2013-05-23 11:42:00,44.7,28.6,28.25,NNE,20,5.0,9.0,53,0.00,,---,0.00,VWS V14.01,2013-05-23 16:42:00,
2013-05-23 11:47:00,45.0,29.4,28.25,NE,39,5.0,5.0,54,0.00,,---,0.00,VWS V14.01,2013-05-23 16:47:00,
2013-05-23 11:52:00,45.8,30.1,28.25,NNE,15,5.0,6.0,54,0.00,,---,0.00,VWS V14.01,2013-05-23 16:52:00,
2013-05-23 11:57:00,46.0,29.4,28.25,NW,320,7.0,9.0,52,0.00,,---,0.00,VWS V14.01,2013-05-23 16:57:00,
2013-05-23 12:03:00,45.4,28.8,28.25,North,5,5.0,10.0,52,0.00,,---,0.00,VWS V14.01,2013-05-23 17:03:00,
2013-05-23 12:08:00,45.7,28.6,28.25,NNW,345,6.0,8.0,51,0.00,,---,0.00,VWS V14.01,2013-05-23 17:08:00,
2013-05-23 12:13:00,46.0,29.4,28.25,North,351,2.0,6.0,52,0.00,,---,0.00,VWS V14.01,2013-05-23 17:13:00,
2013-05-23 12:18:00,46.3,29.6,28.25,NNE,20,5.0,6.0,52,0.00,,---,0.00,VWS V14.01,2013-05-23 17:18:00,
2013-05-23 12:23:00,46.7,29.5,28.25,North,5,6.0,8.0,51,0.00,,---,0.00,VWS V14.01,2013-05-23 17:23:00,
2013-05-23 12:28:00,46.5,29.4,28.25,NE,44,5.0,9.0,51,0.00,,---,0.00,VWS V14.01,2013-05-23 17:28:00,
2013-05-23 12:34:00,46.6,29.9,28.25,NW,325,5.0,10.0,52,0.00,,---,0.00,VWS V14.01,2013-05-23 17:34:00,
2013-05-23 12:39:00,47.6,29.9,28.25,NNW,328,10.0,12.0,50,0.00,,---,0.00,VWS V14.01,2013-05-23 17:39:00,
2013-05-23 12:44:00,47.1,29.4,28.25,NNE,20,6.0,6.0,50,0.00,,---,0.00,VWS V14.01,2013-05-23 17:44:00,
2013-05-23 12:49:00,47.6,29.4,28.25,North,355,4.0,6.0,49,0.00,,---,0.00,VWS V14.01,2013-05-23 17:49:00,
2013-05-23 12:54:00,47.6,30.4,28.25,North,5,11.0,11.0,51,0.00,,---,0.00,VWS V14.01,2013-05-23 17:54:00,
2013-05-23 13:00:00,47.4,30.2,28.25,North,360,5.0,9.0,51,0.00,,---,0.00,VWS V14.01,2013-05-23 18:00:00,
2013-05-23 13:05:00,48.1,29.9,28.25,NNE,15,0.0,2.0,49,0.00,,---,0.00,VWS V14.01,2013-05-23 18:05:00,
2013-05-23 13:10:00,49.0,30.7,28.25,NNW,334,8.0,8.0,49,0.00,,---,0.00,VWS V14.01,2013-05-23 18:10:00,
2013-05-23 13:15:00,48.7,30.4,28.25,NW,318,8.0,8.0,49,0.00,,---,0.00,VWS V14.01,2013-05-23 18:15:00,
2013-05-23 13:20:00,48.5,30.2,28.24,ENE,75,5.0,6.0,49,0.00,,---,0.00,VWS V14.01,2013-05-23 18:20:00,
2013-05-23 13:25:00,49.6,31.2,28.24,ENE,69,1.0,5.0,49,0.00,,---,0.00,VWS V14.01,2013-05-23 18:25:00,
2013-05-23 13:31:00,49.8,29.9,28.24,NNW,346,3.0,9.0,46,0.00,,---,0.00,VWS V14.01,2013-05-23 18:31:00,
2013-05-23 13:36:00,49.4,30.5,28.24,NNE,32,6.0,8.0,48,0.00,,---,0.00,VWS V14.01,2013-05-23 18:36:00,
2013-05-23 13:41:00,50.4,31.5,28.24,WNW,289,5.0,7.0,48,0.00,,---,0.00,VWS V14.01,2013-05-23 18:41:00,
2013-05-23 13:46:00,50.7,30.1,28.24,North,355,11.0,13.0,45,0.00,,---,0.00,VWS V14.01,2013-05-23 18:46:00,
2013-05-23 13:51:00,49.9,29.4,28.24,WNW,283,7.0,7.0,45,0.00,,---,0.00,VWS V14.01,2013-05-23 18:51:00,
2013-05-23 13:56:00,49.7,30.3,28.24,NW,309,5.0,8.0,47,0.00,,---,0.00,VWS V14.01,2013-05-23 18:56:00,
2013-05-23 14:01:00,49.9,28.9,28.25,North,5,6.0,11.0,44,0.00,,---,0.00,VWS V14.01,2013-05-23 19:01:00,
2013-05-23 14:07:00,50.5,29.4,28.25,North,355,9.0,12.0,44,0.00,,---,0.00,VWS V14.01,2013-05-23 19:07:00,
2013-05-23 14:12:00,50.1,28.5,28.25,North,360,2.0,16.0,43,0.00,,---,0.00,VWS V14.01,2013-05-23 19:12:00,
2013-05-23 14:17:00,49.9,28.9,28.25,North,5,4.0,5.0,44,0.00,,---,0.00,VWS V14.01,2013-05-23 19:17:00,
2013-05-23 14:22:00,50.8,28.0,28.25,North,5,10.0,13.0,41,0.00,,---,0.00,VWS V14.01,2013-05-23 19:22:00,
2013-05-23 14:27:00,50.8,29.1,28.25,NNE,22,12.0,12.0,43,0.00,,---,0.00,VWS V14.01,2013-05-23 19:27:00,
2013-05-23 14:33:00,50.8,28.0,28.24,NW,323,10.0,10.0,41,0.00,,---,0.00,VWS V14.01,2013-05-23 19:33:00,
2013-05-23 14:38:00,51.4,28.5,28.24,NNE,15,9.0,9.0,41,0.00,,---,0.00,VWS V14.01,2013-05-23 19:38:00,
2013-05-23 14:43:00,51.5,28.6,28.24,NNE,18,6.0,9.0,41,0.00,,---,0.00,VWS V14.01,2013-05-23 19:43:00,
2013-05-23 14:48:00,51.6,28.1,28.24,NNW,333,5.0,12.0,40,0.00,,---,0.00,VWS V14.01,2013-05-23 19:48:00,
2013-05-23 14:53:00,51.7,29.4,28.24,NNE,27,6.0,9.0,42,0.00,,---,0.00,VWS V14.01,2013-05-23 19:53:00,
2013-05-23 14:58:00,51.9,28.4,28.24,ENE,59,3.0,3.0,40,0.00,,---,0.00,VWS V14.01,2013-05-23 19:58:00,
2013-05-23 15:03:00,51.9,29.5,28.24,NNE,18,8.0,8.0,42,0.00,,---,0.00,VWS V14.01,2013-05-23 20:03:00,
2013-05-23 15:09:00,52.0,29.0,28.24,NNW,346,5.0,9.0,41,0.00,,---,0.00,VWS V14.01,2013-05-23 20:09:00,
2013-05-23 15:14:00,52.5,29.5,28.24,North,351,3.0,7.0,41,0.00,,---,0.00,VWS V14.01,2013-05-23 20:14:00,
2013-05-23 15:19:00,53.2,29.5,28.24,North,355,4.0,4.0,40,0.00,,---,0.00,VWS V14.01,2013-05-23 20:19:00,
2013-05-23 15:24:00,53.3,29.6,28.24,NNW,333,5.0,7.0,40,0.00,,---,0.00,VWS V14.01,2013-05-23 20:24:00,
2013-05-23 15:29:00,52.7,29.1,28.24,NW,304,3.0,3.0,40,0.00,,---,0.00,VWS V14.01,2013-05-23 20:29:00,
2013-05-23 15:34:00,52.9,29.2,28.24,NNW,345,8.0,8.0,40,0.00,,---,0.00,VWS V14.01,2013-05-23 20:34:00,
2013-05-23 15:39:00,52.5,28.3,28.24,North,355,9.0,11.0,39,0.00,,---,0.00,VWS V14.01,2013-05-23 20:39:00,
2013-05-23 15:44:00,52.3,29.3,28.24,North,360,1.0,7.0,41,0.00,,---,0.00,VWS V14.01,2013-05-23 20:44:00,
2013-05-23 15:50:00,52.8,29.8,28.24,NNE,15,8.0,11.0,41,0.00,,---,0.00,VWS V14.01,2013-05-23 20:50:00,
2013-05-23 15:55:00,52.6,30.2,28.24,NNE,26,4.0,8.0,42,0.00,,---,0.00,VWS V14.01,2013-05-23 20:55:00,
2013-05-23 16:00:00,53.0,30.0,28.24,NNE,12,4.0,6.0,41,0.00,,---,0.00,VWS V14.01,2013-05-23 21:00:00,
2013-05-23 16:05:00,53.6,29.9,28.24,NNW,348,5.0,10.0,40,0.00,,---,0.00,VWS V14.01,2013-05-23 21:05:00,
2013-05-23 16:10:00,53.6,29.3,28.24,NNE,22,8.0,12.0,39,0.00,,---,0.00,VWS V14.01,2013-05-23 21:10:00,
2013-05-23 16:16:00,54.0,29.6,28.24,NNW,333,6.0,10.0,39,0.00,,---,0.00,VWS V14.01,2013-05-23 21:16:00,
2013-05-23 16:21:00,53.5,29.8,28.24,NE,40,6.0,13.0,40,0.00,,---,0.00,VWS V14.01,2013-05-23 21:21:00,
2013-05-23 16:26:00,53.5,29.8,28.24,NNE,19,4.0,5.0,40,0.00,,---,0.00,VWS V14.01,2013-05-23 21:26:00,
2013-05-23 16:31:00,53.3,29.0,28.24,North,10,3.0,5.0,39,0.00,,---,0.00,VWS V14.01,2013-05-23 21:31:00,
2013-05-23 16:36:00,53.4,29.1,28.24,NW,317,6.0,9.0,39,0.00,,---,0.00,VWS V14.01,2013-05-23 21:36:00,
2013-05-23 16:41:00,53.3,29.0,28.24,NE,45,5.0,10.0,39,0.00,,---,0.00,VWS V14.01,2013-05-23 21:41:00,
2013-05-23 16:47:00,53.7,29.4,28.24,North,5,13.0,13.0,39,0.00,,---,0.00,VWS V14.01,2013-05-23 21:47:00,
2013-05-23 16:52:00,53.8,30.1,28.24,North,360,5.0,9.0,40,0.00,,---,0.00,VWS V14.01,2013-05-23 21:52:00,
2013-05-23 16:57:00,53.7,30.0,28.24,NNE,21,2.0,3.0,40,0.00,,---,0.00,VWS V14.01,2013-05-23 21:57:00,
2013-05-23 17:02:00,54.5,30.1,28.24,NNW,336,7.0,7.0,39,0.00,,---,0.00,VWS V14.01,2013-05-23 22:02:00,
2013-05-23 17:07:00,53.9,30.1,28.24,North,9,4.0,5.0,40,0.00,,---,0.00,VWS V14.01,2013-05-23 22:07:00,
2013-05-23 17:13:00,54.0,30.2,28.24,North,360,6.0,7.0,40,0.00,,---,0.00,VWS V14.01,2013-05-23 22:13:00,
2013-05-23 17:18:00,54.0,30.2,28.24,North,351,8.0,13.0,40,0.00,,---,0.00,VWS V14.01,2013-05-23 22:18:00,
2013-05-23 17:23:00,54.0,29.6,28.24,NW,325,5.0,7.0,39,0.00,,---,0.00,VWS V14.01,2013-05-23 22:23:00,
2013-05-23 17:28:00,54.6,31.4,28.24,North,5,5.0,8.0,41,0.00,,---,0.00,VWS V14.01,2013-05-23 22:28:00,
2013-05-23 17:33:00,54.7,30.2,28.24,NNW,342,10.0,10.0,39,0.00,,---,0.00,VWS V14.01,2013-05-23 22:33:00,
2013-05-23 17:38:00,54.6,30.2,28.24,NNE,19,4.0,4.0,39,0.00,,---,0.00,VWS V14.01,2013-05-23 22:38:00,
2013-05-23 17:43:00,55.0,30.5,28.24,North,350,3.0,5.0,39,0.00,,---,0.00,VWS V14.01,2013-05-23 22:43:00,
2013-05-23 17:49:00,54.5,30.1,28.24,NNW,347,2.0,5.0,39,0.00,,---,0.00,VWS V14.01,2013-05-23 22:49:00,
2013-05-23 17:54:00,54.4,30.0,28.24,North,11,4.0,4.0,39,0.00,,---,0.00,VWS V14.01,2013-05-23 22:54:00,
2013-05-23 17:59:00,54.4,30.6,28.24,NE,51,3.0,6.0,40,0.00,,---,0.00,VWS V14.01,2013-05-23 22:59:00,
2013-05-23 18:04:00,54.7,30.9,28.24,NNW,342,2.0,4.0,40,0.00,,---,0.00,VWS V14.01,2013-05-23 23:04:00,
2013-05-23 18:09:00,54.9,29.8,28.24,North,5,8.0,8.0,38,0.00,,---,0.00,VWS V14.01,2013-05-23 23:09:00,
2013-05-23 18:14:00,54.6,30.8,28.24,NNE,14,4.0,4.0,40,0.00,,---,0.00,VWS V14.01,2013-05-23 23:14:00,
2013-05-23 18:19:00,55.0,30.5,28.24,NW,319,1.0,4.0,39,0.00,,---,0.00,VWS V14.01,2013-05-23 23:19:00,
2013-05-23 18:24:00,54.8,30.3,28.24,NNE,17,1.0,4.0,39,0.00,,---,0.00,VWS V14.01,2013-05-23 23:24:00,
2013-05-23 18:30:00,54.6,30.2,28.24,NE,40,2.0,5.0,39,0.00,,---,0.00,VWS V14.01,2013-05-23 23:30:00,
2013-05-23 18:35:00,54.3,29.9,28.24,NNE,20,2.0,4.0,39,0.00,,---,0.00,VWS V14.01,2013-05-23 23:35:00,
2013-05-23 18:40:00,54.2,30.4,28.24,North,10,4.0,5.0,40,0.00,,---,0.00,VWS V14.01,2013-05-23 23:40:00,
2013-05-23 18:45:00,54.6,30.8,28.25,NNW,341,0.0,1.0,40,0.00,,---,0.00,VWS V14.01,2013-05-23 23:45:00,
2013-05-23 18:50:00,54.6,30.2,28.25,North,350,3.0,5.0,39,0.00,,---,0.00,VWS V14.01,2013-05-23 23:50:00,
2013-05-23 18:56:00,54.4,30.6,28.25,NNE,20,4.0,5.0,40,0.00,,---,0.00,VWS V14.01,2013-05-23 23:56:00,
2013-05-23 19:01:00,54.2,31.0,28.25,NNE,23,1.0,4.0,41,0.00,,---,0.00,VWS V14.01,2013-05-24 00:01:00,
2013-05-23 19:06:00,54.2,30.4,28.25,NNE,13,6.0,8.0,40,0.00,,---,0.00,VWS V14.01,2013-05-24 00:06:00,
2013-05-23 19:11:00,54.0,30.9,28.25,NNE,26,4.0,4.0,41,0.00,,---,0.00,VWS V14.01,2013-05-24 00:11:00,
2013-05-23 19:16:00,54.0,30.9,28.25,NNE,22,5.0,5.0,41,0.00,,---,0.00,VWS V14.01,2013-05-24 00:16:00,
2013-05-23 19:22:00,53.9,31.4,28.25,North,350,0.0,1.0,42,0.00,,---,0.00,VWS V14.01,2013-05-24 00:22:00,
2013-05-23 19:27:00,54.0,30.9,28.25,North,355,0.0,4.0,41,0.00,,---,0.00,VWS V14.01,2013-05-24 00:27:00,
2013-05-23 19:32:00,53.8,30.7,28.25,NNE,12,1.0,2.0,41,0.00,,---,0.00,VWS V14.01,2013-05-24 00:32:00,
2013-05-23 19:37:00,53.7,31.2,28.25,NNE,26,0.0,3.0,42,0.00,,---,0.00,VWS V14.01,2013-05-24 00:37:00,
2013-05-23 19:42:00,53.5,31.0,28.25,NNE,23,1.0,2.0,42,0.00,,---,0.00,VWS V14.01,2013-05-24 00:42:00,
2013-05-23 19:48:00,53.3,31.4,28.25,NNE,23,2.0,2.0,43,0.00,,---,0.00,VWS V14.01,2013-05-24 00:48:00,
2013-05-23 19:53:00,53.1,31.2,28.25,NNE,21,0.0,6.0,43,0.00,,---,0.00,VWS V14.01,2013-05-24 00:53:00,
2013-05-23 19:58:00,52.8,31.5,28.25,NNE,22,2.0,2.0,44,0.00,,---,0.00,VWS V14.01,2013-05-24 00:58:00,
2013-05-23 20:03:00,52.6,31.9,28.25,NNE,22,2.0,2.0,45,0.00,,---,0.00,VWS V14.01,2013-05-24 01:03:00,
2013-05-23 20:08:00,52.2,31.5,28.25,NNE,22,0.0,1.0,45,0.00,,---,0.00,VWS V14.01,2013-05-24 01:08:00,
2013-05-23 20:14:00,51.9,31.8,28.25,NNE,22,0.0,0.0,46,0.00,,---,0.00,VWS V14.01,2013-05-24 01:14:00,
2013-05-23 20:19:00,51.5,31.4,28.25,NNE,22,0.0,0.0,46,0.00,,---,0.00,VWS V14.01,2013-05-24 01:19:00,
2013-05-23 20:24:00,51.2,31.1,28.25,NNE,22,0.0,0.0,46,0.00,,---,0.00,VWS V14.01,2013-05-24 01:24:00,
2013-05-23 20:29:00,50.8,31.3,28.25,NNE,22,0.0,0.0,47,0.00,,---,0.00,VWS V14.01,2013-05-24 01:29:00,
2013-05-23 20:34:00,50.3,31.4,28.25,NNE,22,0.0,0.0,48,0.00,,---,0.00,VWS V14.01,2013-05-24 01:34:00,
2013-05-23 20:40:00,49.7,31.3,28.25,NNE,22,0.0,0.0,49,0.00,,---,0.00,VWS V14.01,2013-05-24 01:40:00,
2013-05-23 20:45:00,49.2,31.4,28.25,NNE,22,0.0,0.0,50,0.00,,---,0.00,VWS V14.01,2013-05-24 01:45:00,
2013-05-23 20:50:00,48.5,31.7,28.26,NNE,22,0.0,0.0,52,0.00,,---,0.00,VWS V14.01,2013-05-24 01:50:00,
2013-05-23 20:55:00,47.7,33.2,28.26,NNE,22,0.0,0.0,57,0.00,,---,0.00,VWS V14.01,2013-05-24 01:55:00,
2013-05-23 21:00:00,46.4,34.1,28.26,West,277,4.0,5.0,62,0.00,,---,0.00,VWS V14.01,2013-05-24 02:00:00,
2013-05-23 21:06:00,45.0,32.8,28.26,West,277,0.0,0.0,62,0.00,,---,0.00,VWS V14.01,2013-05-24 02:06:00,
2013-05-23 21:11:00,44.3,32.5,28.26,West,276,0.0,0.0,63,0.00,,---,0.00,VWS V14.01,2013-05-24 02:11:00,
2013-05-23 21:16:00,43.7,32.3,28.26,WSW,249,3.0,3.0,64,0.00,,---,0.00,VWS V14.01,2013-05-24 02:16:00,
2013-05-23 21:21:00,43.2,32.2,28.26,SSW,199,0.0,1.0,65,0.00,,---,0.00,VWS V14.01,2013-05-24 02:21:00,
2013-05-23 21:26:00,42.7,32.2,28.26,SSW,196,2.0,4.0,66,0.00,,---,0.00,VWS V14.01,2013-05-24 02:26:00,
2013-05-23 21:31:00,42.2,31.3,28.26,SSW,196,0.0,2.0,65,0.00,,---,0.00,VWS V14.01,2013-05-24 02:31:00,
2013-05-23 21:36:00,41.8,30.5,28.26,South,173,0.0,4.0,64,0.00,,---,0.00,VWS V14.01,2013-05-24 02:36:00,
2013-05-23 21:41:00,41.4,30.5,28.26,South,171,0.0,0.0,65,0.00,,---,0.00,VWS V14.01,2013-05-24 02:41:00,
2013-05-23 21:46:00,41.1,30.2,28.27,SSE,160,0.0,0.0,65,0.00,,---,0.00,VWS V14.01,2013-05-24 02:46:00,
2013-05-23 21:52:00,41.0,29.8,28.27,SSE,166,3.0,4.0,64,0.00,,---,0.00,VWS V14.01,2013-05-24 02:52:00,
2013-05-23 21:57:00,40.9,29.7,28.27,South,169,3.0,3.0,64,0.00,,---,0.00,VWS V14.01,2013-05-24 02:57:00,
2013-05-23 22:02:00,40.6,29.4,28.27,South,170,0.0,1.0,64,0.00,,---,0.00,VWS V14.01,2013-05-24 03:02:00,
2013-05-23 22:07:00,40.3,29.1,28.27,South,172,1.0,3.0,64,0.00,,---,0.00,VWS V14.01,2013-05-24 03:07:00,
2013-05-23 22:12:00,40.0,28.8,28.27,South,171,1.0,1.0,64,0.00,,---,0.00,VWS V14.01,2013-05-24 03:12:00,
2013-05-23 22:17:00,39.8,28.6,28.27,South,171,0.0,2.0,64,0.00,,---,0.00,VWS V14.01,2013-05-24 03:17:00,
2013-05-23 22:22:00,39.5,28.7,28.27,South,171,0.0,0.0,65,0.00,,---,0.00,VWS V14.01,2013-05-24 03:22:00,
2013-05-23 22:27:00,39.3,28.5,28.27,South,174,3.0,3.0,65,0.00,,---,0.00,VWS V14.01,2013-05-24 03:27:00,
2013-05-23 22:33:00,39.1,28.7,28.27,South,174,1.0,2.0,66,0.00,,---,0.00,VWS V14.01,2013-05-24 03:33:00,
2013-05-23 22:38:00,39.0,28.2,28.27,South,186,0.0,2.0,65,0.00,,---,0.00,VWS V14.01,2013-05-24 03:38:00,
2013-05-23 22:43:00,39.0,28.2,28.27,South,189,2.0,2.0,65,0.00,,---,0.00,VWS V14.01,2013-05-24 03:43:00,
2013-05-23 22:48:00,38.8,28.1,28.27,SSW,196,1.0,3.0,65,0.00,,---,0.00,VWS V14.01,2013-05-24 03:48:00,
2013-05-23 22:53:00,38.7,28.0,28.27,SSW,196,2.0,3.0,65,0.00,,---,0.00,VWS V14.01,2013-05-24 03:53:00,
2013-05-23 22:58:00,38.7,28.0,28.27,SSW,196,1.0,1.0,65,0.00,,---,0.00,VWS V14.01,2013-05-24 03:58:00,
2013-05-23 23:01:00,38.7,28.0,28.27,SSW,196,0.0,3.0,65,0.00,,---,0.00,VWS V14.01,2013-05-24 04:01:00,
2013-05-23 23:02:00,38.7,28.0,28.27,SSW,196,0.0,0.0,65,0.00,,---,0.00,VWS V14.01,2013-05-24 04:02:00,
2013-05-23 23:07:00,38.6,27.9,28.27,SSW,196,0.0,3.0,65,0.00,,---,0.00,VWS V14.01,2013-05-24 04:07:00,
2013-05-23 23:13:00,38.5,27.8,28.27,SSW,196,0.0,1.0,65,0.00,,---,0.00,VWS V14.01,2013-05-24 04:13:00,
2013-05-23 23:18:00,38.5,28.1,28.27,SSW,198,0.0,4.0,66,0.00,,---,0.00,VWS V14.01,2013-05-24 04:18:00,
2013-05-23 23:23:00,38.4,27.7,28.27,SSW,198,0.0,0.0,65,0.00,,---,0.00,VWS V14.01,2013-05-24 04:23:00,
2013-05-23 23:28:00,38.3,28.0,28.27,SSW,198,0.0,0.0,66,0.00,,---,0.00,VWS V14.01,2013-05-24 04:28:00,
2013-05-23 23:33:00,38.0,27.7,28.27,SSW,198,0.0,1.0,66,0.00,,---,0.00,VWS V14.01,2013-05-24 04:33:00,
2013-05-23 23:38:00,37.9,27.9,28.27,SSW,198,0.0,0.0,67,0.00,,---,0.00,VWS V14.01,2013-05-24 04:38:00,
2013-05-23 23:44:00,37.6,27.6,28.27,SSW,198,0.0,1.0,67,0.00,,---,0.00,VWS V14.01,2013-05-24 04:44:00,
2013-05-23 23:49:00,37.6,27.6,28.28,SSW,202,0.0,3.0,67,0.00,,---,0.00,VWS V14.01,2013-05-24 04:49:00,
2013-05-23 23:54:00,37.5,27.5,28.28,SSW,202,0.0,1.0,67,0.00,,---,0.00,VWS V14.01,2013-05-24 04:54:00,
2013-05-23 23:59:00,37.4,27.5,28.28,SSW,202,0.0,0.0,67,0.00,,---,0.00,VWS V14.01,2013-05-24 04:59:00,